Terminal Aerodrome Forecast
Issued by NWS

Home | Current Version | Previous Version | Text Only | Print | Product List | Glossary On
Versions: 1 2 3 4 5 6 7 8 9 10 11 12 13 14 15 16 17 18 19 20 21 22
703
FTUS43 KJKL 241720
TAFSME
TAF
KSME 241720Z 2418/2518 27004KT P6SM BKN015
     FM242100 25004KT P6SM SCT015
     FM251200 18006KT P6SM BKN035 WS020/23035KT
     FM251500 20007KT P6SM BKN030
     FM251700 21010KT P6SM -SHRA BKN025=

USA.gov is the U.S. government's official web portal to all federal, state and local government web resources and services.